sensor_id;sensor_type;location;lat;lon;timestamp;temperature;humidity
81218;DHT22;70689;52.494;13.420;2023-09-30T00:01:44;19.50;62.50
81218;DHT22;70689;52.494;13.420;2023-09-30T00:04:10;19.40;62.10
81218;DHT22;70689;52.494;13.420;2023-09-30T00:06:36;19.60;60.80
81218;DHT22;70689;52.494;13.420;2023-09-30T00:09:02;19.50;61.00
81218;DHT22;70689;52.494;13.420;2023-09-30T00:11:28;19.50;59.00
81218;DHT22;70689;52.494;13.420;2023-09-30T00:13:54;19.50;58.70
81218;DHT22;70689;52.494;13.420;2023-09-30T00:16:19;19.50;57.50
81218;DHT22;70689;52.494;13.420;2023-09-30T00:18:45;19.50;57.40
81218;DHT22;70689;52.494;13.420;2023-09-30T00:21:11;19.60;56.30
81218;DHT22;70689;52.494;13.420;2023-09-30T00:23:37;19.60;56.10
81218;DHT22;70689;52.494;13.420;2023-09-30T00:26:03;19.40;56.40
81218;DHT22;70689;52.494;13.420;2023-09-30T00:28:29;19.30;55.20
81218;DHT22;70689;52.494;13.420;2023-09-30T00:30:54;19.30;56.00
81218;DHT22;70689;52.494;13.420;2023-09-30T00:33:20;19.50;53.70
81218;DHT22;70689;52.494;13.420;2023-09-30T00:35:45;19.40;54.00
81218;DHT22;70689;52.494;13.420;2023-09-30T00:38:11;19.30;54.60
81218;DHT22;70689;52.494;13.420;2023-09-30T00:40:37;19.20;54.10
81218;DHT22;70689;52.494;13.420;2023-09-30T00:43:03;19.10;54.30
81218;DHT22;70689;52.494;13.420;2023-09-30T00:45:30;19.00;54.40
81218;DHT22;70689;52.494;13.420;2023-09-30T00:47:55;19.00;55.00
81218;DHT22;70689;52.494;13.420;2023-09-30T00:50:21;19.00;55.20
81218;DHT22;70689;52.494;13.420;2023-09-30T00:52:48;19.00;54.90
81218;DHT22;70689;52.494;13.420;2023-09-30T00:55:15;19.00;54.90
81218;DHT22;70689;52.494;13.420;2023-09-30T00:57:41;18.90;55.40
81218;DHT22;70689;52.494;13.420;2023-09-30T01:00:08;18.80;56.00
81218;DHT22;70689;52.494;13.420;2023-09-30T01:02:39;18.80;56.00
81218;DHT22;70689;52.494;13.420;2023-09-30T01:05:04;18.80;55.90
81218;DHT22;70689;52.494;13.420;2023-09-30T01:07:30;18.70;55.40
81218;DHT22;70689;52.494;13.420;2023-09-30T01:09:56;18.60;55.40
81218;DHT22;70689;52.494;13.420;2023-09-30T01:12:22;18.60;55.60
81218;DHT22;70689;52.494;13.420;2023-09-30T01:14:47;18.60;55.70
81218;DHT22;70689;52.494;13.420;2023-09-30T01:17:13;18.50;56.20
81218;DHT22;70689;52.494;13.420;2023-09-30T01:19:39;18.50;56.30
81218;DHT22;70689;52.494;13.420;2023-09-30T01:22:05;18.40;56.50
81218;DHT22;70689;52.494;13.420;2023-09-30T01:24:42;18.40;56.40
81218;DHT22;70689;52.494;13.420;2023-09-30T01:27:08;18.40;56.30
81218;DHT22;70689;52.494;13.420;2023-09-30T01:29:34;18.40;56.20
81218;DHT22;70689;52.494;13.420;2023-09-30T01:32:00;18.30;56.60
81218;DHT22;70689;52.494;13.420;2023-09-30T01:34:26;18.30;56.20
81218;DHT22;70689;52.494;13.420;2023-09-30T01:36:53;18.20;56.50
81218;DHT22;70689;52.494;13.420;2023-09-30T01:39:18;18.20;56.50
81218;DHT22;70689;52.494;13.420;2023-09-30T01:41:44;18.20;55.30
81218;DHT22;70689;52.494;13.420;2023-09-30T01:44:10;18.20;55.50
81218;DHT22;70689;52.494;13.420;2023-09-30T01:46:36;18.10;55.80
81218;DHT22;70689;52.494;13.420;2023-09-30T01:49:02;18.20;55.80
81218;DHT22;70689;52.494;13.420;2023-09-30T01:51:29;18.20;55.40
81218;DHT22;70689;52.494;13.420;2023-09-30T01:53:55;18.20;55.20
81218;DHT22;70689;52.494;13.420;2023-09-30T01:56:21;18.00;55.70
81218;DHT22;70689;52.494;13.420;2023-09-30T01:58:47;17.90;56.30
81218;DHT22;70689;52.494;13.420;2023-09-30T02:01:12;17.90;56.00
81218;DHT22;70689;52.494;13.420;2023-09-30T02:03:38;18.00;56.20
81218;DHT22;70689;52.494;13.420;2023-09-30T02:06:04;17.90;56.20
81218;DHT22;70689;52.494;13.420;2023-09-30T02:08:30;18.00;56.10
81218;DHT22;70689;52.494;13.420;2023-09-30T02:10:55;18.00;56.00
81218;DHT22;70689;52.494;13.420;2023-09-30T02:13:21;18.00;56.00
81218;DHT22;70689;52.494;13.420;2023-09-30T02:15:47;17.90;56.30
81218;DHT22;70689;52.494;13.420;2023-09-30T02:18:12;17.80;57.00
81218;DHT22;70689;52.494;13.420;2023-09-30T02:20:38;17.80;56.90
81218;DHT22;70689;52.494;13.420;2023-09-30T02:23:09;17.80;57.10
81218;DHT22;70689;52.494;13.420;2023-09-30T02:25:39;17.70;57.00
81218;DHT22;70689;52.494;13.420;2023-09-30T02:28:06;17.60;57.50
81218;DHT22;70689;52.494;13.420;2023-09-30T02:30:32;17.50;57.70
81218;DHT22;70689;52.494;13.420;2023-09-30T02:32:58;17.50;58.00
81218;DHT22;70689;52.494;13.420;2023-09-30T02:35:24;17.50;58.20
81218;DHT22;70689;52.494;13.420;2023-09-30T02:37:51;17.40;58.30
81218;DHT22;70689;52.494;13.420;2023-09-30T02:40:17;17.40;58.50
81218;DHT22;70689;52.494;13.420;2023-09-30T02:42:43;17.40;58.60
81218;DHT22;70689;52.494;13.420;2023-09-30T02:45:11;17.50;58.70
81218;DHT22;70689;52.494;13.420;2023-09-30T02:47:39;17.50;58.80
81218;DHT22;70689;52.494;13.420;2023-09-30T02:50:06;17.50;58.80
81218;DHT22;70689;52.494;13.420;2023-09-30T02:52:34;17.50;59.10
81218;DHT22;70689;52.494;13.420;2023-09-30T02:55:00;17.50;59.30
81218;DHT22;70689;52.494;13.420;2023-09-30T02:57:26;17.40;59.50
81218;DHT22;70689;52.494;13.420;2023-09-30T02:59:56;17.30;59.80
81218;DHT22;70689;52.494;13.420;2023-09-30T03:02:24;17.20;60.30
81218;DHT22;70689;52.494;13.420;2023-09-30T03:04:50;17.30;60.20
81218;DHT22;70689;52.494;13.420;2023-09-30T03:07:20;17.30;60.10
81218;DHT22;70689;52.494;13.420;2023-09-30T03:09:45;17.20;60.50
81218;DHT22;70689;52.494;13.420;2023-09-30T03:12:12;17.20;60.40
81218;DHT22;70689;52.494;13.420;2023-09-30T03:14:37;17.30;60.00
81218;DHT22;70689;52.494;13.420;2023-09-30T03:17:03;17.30;60.10
81218;DHT22;70689;52.494;13.420;2023-09-30T03:19:29;17.10;60.90
81218;DHT22;70689;52.494;13.420;2023-09-30T03:21:55;17.00;61.30
81218;DHT22;70689;52.494;13.420;2023-09-30T03:24:20;17.10;61.20
81218;DHT22;70689;52.494;13.420;2023-09-30T03:26:46;17.10;61.00
81218;DHT22;70689;52.494;13.420;2023-09-30T03:29:12;17.00;61.40
81218;DHT22;70689;52.494;13.420;2023-09-30T03:31:38;17.00;61.50
81218;DHT22;70689;52.494;13.420;2023-09-30T03:34:03;17.10;61.60
81218;DHT22;70689;52.494;13.420;2023-09-30T03:36:29;17.10;61.30
81218;DHT22;70689;52.494;13.420;2023-09-30T03:38:55;17.00;61.50
81218;DHT22;70689;52.494;13.420;2023-09-30T03:41:22;17.00;61.80
81218;DHT22;70689;52.494;13.420;2023-09-30T03:43:48;17.00;61.70
81218;DHT22;70689;52.494;13.420;2023-09-30T03:46:14;17.00;61.60
81218;DHT22;70689;52.494;13.420;2023-09-30T03:48:41;17.00;61.40
81218;DHT22;70689;52.494;13.420;2023-09-30T03:51:17;17.00;62.60
81218;DHT22;70689;52.494;13.420;2023-09-30T03:53:44;17.00;61.70
81218;DHT22;70689;52.494;13.420;2023-09-30T03:56:10;16.90;61.70
81218;DHT22;70689;52.494;13.420;2023-09-30T03:58:39;16.90;61.90
81218;DHT22;70689;52.494;13.420;2023-09-30T04:01:06;16.80;62.20
81218;DHT22;70689;52.494;13.420;2023-09-30T04:03:33;16.90;62.00
81218;DHT22;70689;52.494;13.420;2023-09-30T04:05:59;16.90;61.70
81218;DHT22;70689;52.494;13.420;2023-09-30T04:08:24;16.80;63.00
81218;DHT22;70689;52.494;13.420;2023-09-30T04:10:50;16.70;62.30
81218;DHT22;70689;52.494;13.420;2023-09-30T04:13:16;16.80;62.20
81218;DHT22;70689;52.494;13.420;2023-09-30T04:15:43;16.70;62.60
81218;DHT22;70689;52.494;13.420;2023-09-30T04:18:10;16.70;62.60
81218;DHT22;70689;52.494;13.420;2023-09-30T04:20:37;16.80;62.10
81218;DHT22;70689;52.494;13.420;2023-09-30T04:23:05;16.80;62.00
81218;DHT22;70689;52.494;13.420;2023-09-30T04:25:32;16.70;62.40
81218;DHT22;70689;52.494;13.420;2023-09-30T04:27:58;16.80;61.90
81218;DHT22;70689;52.494;13.420;2023-09-30T04:30:23;16.70;62.10
81218;DHT22;70689;52.494;13.420;2023-09-30T04:32:49;16.50;62.80
81218;DHT22;70689;52.494;13.420;2023-09-30T04:35:15;16.40;63.20
81218;DHT22;70689;52.494;13.420;2023-09-30T04:37:40;16.30;63.70
81218;DHT22;70689;52.494;13.420;2023-09-30T04:40:08;16.30;64.00
81218;DHT22;70689;52.494;13.420;2023-09-30T04:42:46;16.40;63.70
81218;DHT22;70689;52.494;13.420;2023-09-30T04:45:15;16.30;63.80
81218;DHT22;70689;52.494;13.420;2023-09-30T04:47:49;16.40;63.90
81218;DHT22;70689;52.494;13.420;2023-09-30T04:50:16;16.40;64.10
81218;DHT22;70689;52.494;13.420;2023-09-30T04:52:42;16.40;63.40
81218;DHT22;70689;52.494;13.420;2023-09-30T04:55:07;16.30;63.70
81218;DHT22;70689;52.494;13.420;2023-09-30T04:57:34;16.40;63.70
81218;DHT22;70689;52.494;13.420;2023-09-30T05:00:00;16.40;63.40
81218;DHT22;70689;52.494;13.420;2023-09-30T05:02:27;16.40;63.40
81218;DHT22;70689;52.494;13.420;2023-09-30T05:04:53;16.30;63.30
81218;DHT22;70689;52.494;13.420;2023-09-30T05:07:22;16.30;63.60
81218;DHT22;70689;52.494;13.420;2023-09-30T05:09:48;16.20;63.60
81218;DHT22;70689;52.494;13.420;2023-09-30T05:12:13;16.20;63.60
81218;DHT22;70689;52.494;13.420;2023-09-30T05:14:40;16.10;63.90
81218;DHT22;70689;52.494;13.420;2023-09-30T05:17:06;16.20;64.10
81218;DHT22;70689;52.494;13.420;2023-09-30T05:19:33;16.20;63.60
81218;DHT22;70689;52.494;13.420;2023-09-30T05:21:59;16.10;63.60
81218;DHT22;70689;52.494;13.420;2023-09-30T05:24:27;16.10;64.00
81218;DHT22;70689;52.494;13.420;2023-09-30T05:26:53;16.10;64.00
81218;DHT22;70689;52.494;13.420;2023-09-30T05:29:18;16.20;63.90
81218;DHT22;70689;52.494;13.420;2023-09-30T05:31:44;16.20;63.60
81218;DHT22;70689;52.494;13.420;2023-09-30T05:34:10;16.20;63.80
81218;DHT22;70689;52.494;13.420;2023-09-30T05:36:36;16.10;63.90
81218;DHT22;70689;52.494;13.420;2023-09-30T05:39:02;16.10;64.00
81218;DHT22;70689;52.494;13.420;2023-09-30T05:41:28;16.20;63.60
81218;DHT22;70689;52.494;13.420;2023-09-30T05:43:55;16.20;63.70
81218;DHT22;70689;52.494;13.420;2023-09-30T05:46:20;16.20;64.00
81218;DHT22;70689;52.494;13.420;2023-09-30T05:48:47;16.20;63.60
81218;DHT22;70689;52.494;13.420;2023-09-30T05:51:12;16.20;63.40
81218;DHT22;70689;52.494;13.420;2023-09-30T05:53:41;16.20;63.60
81218;DHT22;70689;52.494;13.420;2023-09-30T05:56:07;16.20;63.40
81218;DHT22;70689;52.494;13.420;2023-09-30T05:58:33;16.20;64.00
81218;DHT22;70689;52.494;13.420;2023-09-30T06:00:58;16.40;63.60
81218;DHT22;70689;52.494;13.420;2023-09-30T06:03:28;16.40;63.30
81218;DHT22;70689;52.494;13.420;2023-09-30T06:05:55;16.40;62.80
81218;DHT22;70689;52.494;13.420;2023-09-30T06:08:23;16.40;62.60
81218;DHT22;70689;52.494;13.420;2023-09-30T06:10:49;16.60;62.60
81218;DHT22;70689;52.494;13.420;2023-09-30T06:13:14;16.60;62.10
81218;DHT22;70689;52.494;13.420;2023-09-30T06:15:42;16.60;61.70
81218;DHT22;70689;52.494;13.420;2023-09-30T06:18:09;16.50;62.30
81218;DHT22;70689;52.494;13.420;2023-09-30T06:20:37;16.70;62.10
81218;DHT22;70689;52.494;13.420;2023-09-30T06:23:03;16.60;62.20
81218;DHT22;70689;52.494;13.420;2023-09-30T06:25:29;16.80;61.70
81218;DHT22;70689;52.494;13.420;2023-09-30T06:27:56;16.80;61.20
81218;DHT22;70689;52.494;13.420;2023-09-30T06:30:22;16.90;61.00
81218;DHT22;70689;52.494;13.420;2023-09-30T06:32:57;17.00;60.90
81218;DHT22;70689;52.494;13.420;2023-09-30T06:35:26;16.90;60.50
81218;DHT22;70689;52.494;13.420;2023-09-30T06:37:52;16.90;60.80
81218;DHT22;70689;52.494;13.420;2023-09-30T06:40:18;16.80;61.00
81218;DHT22;70689;52.494;13.420;2023-09-30T06:42:44;16.90;60.50
81218;DHT22;70689;52.494;13.420;2023-09-30T06:45:10;16.80;60.90
81218;DHT22;70689;52.494;13.420;2023-09-30T06:47:37;16.90;60.50
81218;DHT22;70689;52.494;13.420;2023-09-30T06:50:04;17.10;60.00
81218;DHT22;70689;52.494;13.420;2023-09-30T06:52:39;17.30;59.70
81218;DHT22;70689;52.494;13.420;2023-09-30T06:55:06;17.40;59.30
81218;DHT22;70689;52.494;13.420;2023-09-30T06:57:36;17.60;57.80
81218;DHT22;70689;52.494;13.420;2023-09-30T07:00:11;17.50;58.00
81218;DHT22;70689;52.494;13.420;2023-09-30T07:02:39;17.30;58.60
81218;DHT22;70689;52.494;13.420;2023-09-30T07:05:09;17.30;58.70
81218;DHT22;70689;52.494;13.420;2023-09-30T07:07:35;17.20;58.90
81218;DHT22;70689;52.494;13.420;2023-09-30T07:10:00;17.30;58.80
81218;DHT22;70689;52.494;13.420;2023-09-30T07:12:26;17.40;58.40
81218;DHT22;70689;52.494;13.420;2023-09-30T07:14:53;17.50;58.00
81218;DHT22;70689;52.494;13.420;2023-09-30T07:17:18;17.50;58.00
81218;DHT22;70689;52.494;13.420;2023-09-30T07:19:44;17.40;57.80
81218;DHT22;70689;52.494;13.420;2023-09-30T07:22:09;17.60;57.80
81218;DHT22;70689;52.494;13.420;2023-09-30T07:24:35;17.60;57.30
81218;DHT22;70689;52.494;13.420;2023-09-30T07:27:01;17.60;58.00
81218;DHT22;70689;52.494;13.420;2023-09-30T07:29:27;17.50;57.50
81218;DHT22;70689;52.494;13.420;2023-09-30T07:31:53;17.50;58.10
81218;DHT22;70689;52.494;13.420;2023-09-30T07:34:18;17.50;57.50
81218;DHT22;70689;52.494;13.420;2023-09-30T07:36:44;17.60;57.10
81218;DHT22;70689;52.494;13.420;2023-09-30T07:39:10;17.60;57.40
81218;DHT22;70689;52.494;13.420;2023-09-30T07:41:35;17.60;57.80
81218;DHT22;70689;52.494;13.420;2023-09-30T07:44:04;17.80;57.20
81218;DHT22;70689;52.494;13.420;2023-09-30T07:46:30;17.80;56.80
81218;DHT22;70689;52.494;13.420;2023-09-30T07:48:56;17.90;56.30
81218;DHT22;70689;52.494;13.420;2023-09-30T07:51:24;17.90;56.50
81218;DHT22;70689;52.494;13.420;2023-09-30T07:53:49;17.80;56.30
81218;DHT22;70689;52.494;13.420;2023-09-30T07:56:16;17.80;56.70
81218;DHT22;70689;52.494;13.420;2023-09-30T07:58:41;17.60;57.60
81218;DHT22;70689;52.494;13.420;2023-09-30T08:01:10;17.40;58.10
81218;DHT22;70689;52.494;13.420;2023-09-30T08:03:35;17.30;58.60
81218;DHT22;70689;52.494;13.420;2023-09-30T08:06:02;17.20;59.20
81218;DHT22;70689;52.494;13.420;2023-09-30T08:08:28;17.10;59.40
81218;DHT22;70689;52.494;13.420;2023-09-30T08:10:55;17.10;59.70
81218;DHT22;70689;52.494;13.420;2023-09-30T08:13:22;17.10;60.00
81218;DHT22;70689;52.494;13.420;2023-09-30T08:15:50;17.10;59.90
81218;DHT22;70689;52.494;13.420;2023-09-30T08:18:16;17.10;59.80
81218;DHT22;70689;52.494;13.420;2023-09-30T08:20:42;17.20;59.90
81218;DHT22;70689;52.494;13.420;2023-09-30T08:23:08;17.30;59.60
81218;DHT22;70689;52.494;13.420;2023-09-30T08:25:33;17.60;59.00
81218;DHT22;70689;52.494;13.420;2023-09-30T08:27:59;17.70;58.00
81218;DHT22;70689;52.494;13.420;2023-09-30T08:30:25;17.90;57.70
81218;DHT22;70689;52.494;13.420;2023-09-30T08:32:51;18.10;56.60
81218;DHT22;70689;52.494;13.420;2023-09-30T08:35:17;18.70;55.00
81218;DHT22;70689;52.494;13.420;2023-09-30T08:37:43;19.00;53.60
81218;DHT22;70689;52.494;13.420;2023-09-30T08:40:09;19.60;51.30
81218;DHT22;70689;52.494;13.420;2023-09-30T08:42:35;20.30;48.90
81218;DHT22;70689;52.494;13.420;2023-09-30T08:45:09;20.60;47.50
81218;DHT22;70689;52.494;13.420;2023-09-30T08:47:36;20.40;47.60
81218;DHT22;70689;52.494;13.420;2023-09-30T08:50:03;20.10;49.20
81218;DHT22;70689;52.494;13.420;2023-09-30T08:52:38;20.00;49.80
81218;DHT22;70689;52.494;13.420;2023-09-30T08:55:07;20.40;49.50
81218;DHT22;70689;52.494;13.420;2023-09-30T08:57:33;20.40;48.20
81218;DHT22;70689;52.494;13.420;2023-09-30T09:00:02;20.20;48.80
81218;DHT22;70689;52.494;13.420;2023-09-30T09:02:28;20.00;49.70
81218;DHT22;70689;52.494;13.420;2023-09-30T09:04:54;20.00;49.70
81218;DHT22;70689;52.494;13.420;2023-09-30T09:07:20;19.90;49.80
81218;DHT22;70689;52.494;13.420;2023-09-30T09:12:32;19.90;49.60
81218;DHT22;70689;52.494;13.420;2023-09-30T09:14:58;20.10;48.20
81218;DHT22;70689;52.494;13.420;2023-09-30T09:17:24;20.90;47.50
81218;DHT22;70689;52.494;13.420;2023-09-30T09:20:05;21.10;47.00
81218;DHT22;70689;52.494;13.420;2023-09-30T09:22:38;21.30;46.40
81218;DHT22;70689;52.494;13.420;2023-09-30T09:25:05;21.70;44.10
81218;DHT22;70689;52.494;13.420;2023-09-30T09:27:33;21.80;43.60
81218;DHT22;70689;52.494;13.420;2023-09-30T09:30:19;21.40;45.40
81218;DHT22;70689;52.494;13.420;2023-09-30T09:35:26;21.10;45.80
81218;DHT22;70689;52.494;13.420;2023-09-30T09:38:07;21.20;46.10
81218;DHT22;70689;52.494;13.420;2023-09-30T09:40:35;21.10;45.90
81218;DHT22;70689;52.494;13.420;2023-09-30T09:43:02;20.90;46.40
81218;DHT22;70689;52.494;13.420;2023-09-30T09:45:32;20.80;46.80
81218;DHT22;70689;52.494;13.420;2023-09-30T09:47:58;20.80;47.60
81218;DHT22;70689;52.494;13.420;2023-09-30T09:50:24;21.00;47.40
81218;DHT22;70689;52.494;13.420;2023-09-30T09:52:54;20.90;46.50
81218;DHT22;70689;52.494;13.420;2023-09-30T09:55:22;20.90;46.80
81218;DHT22;70689;52.494;13.420;2023-09-30T09:57:49;20.90;46.60
81218;DHT22;70689;52.494;13.420;2023-09-30T10:00:18;21.20;46.10
81218;DHT22;70689;52.494;13.420;2023-09-30T10:02:45;21.30;44.20
81218;DHT22;70689;52.494;13.420;2023-09-30T10:05:12;21.20;45.20
81218;DHT22;70689;52.494;13.420;2023-09-30T10:07:44;21.70;44.00
81218;DHT22;70689;52.494;13.420;2023-09-30T10:10:14;21.90;43.40
81218;DHT22;70689;52.494;13.420;2023-09-30T10:12:42;22.00;42.40
81218;DHT22;70689;52.494;13.420;2023-09-30T10:17:59;21.90;43.30
81218;DHT22;70689;52.494;13.420;2023-09-30T10:20:43;21.80;41.70
81218;DHT22;70689;52.494;13.420;2023-09-30T10:23:26;21.60;42.20
81218;DHT22;70689;52.494;13.420;2023-09-30T10:25:54;21.10;43.30
81218;DHT22;70689;52.494;13.420;2023-09-30T10:31:09;21.10;44.00
81218;DHT22;70689;52.494;13.420;2023-09-30T10:38:54;23.30;37.60
81218;DHT22;70689;52.494;13.420;2023-09-30T10:46:48;23.40;37.90
81218;DHT22;70689;52.494;13.420;2023-09-30T10:51:54;22.80;37.00
81218;DHT22;70689;52.494;13.420;2023-09-30T10:54:25;22.50;37.60
81218;DHT22;70689;52.494;13.420;2023-09-30T10:56:53;22.10;38.50
81218;DHT22;70689;52.494;13.420;2023-09-30T10:59:19;21.80;39.70
81218;DHT22;70689;52.494;13.420;2023-09-30T11:01:45;21.70;39.10
81218;DHT22;70689;52.494;13.420;2023-09-30T11:04:11;21.80;39.70
81218;DHT22;70689;52.494;13.420;2023-09-30T11:06:40;21.90;40.00
81218;DHT22;70689;52.494;13.420;2023-09-30T11:09:06;21.80;39.80
81218;DHT22;70689;52.494;13.420;2023-09-30T11:11:42;21.80;39.20
81218;DHT22;70689;52.494;13.420;2023-09-30T11:14:28;21.80;38.60
81218;DHT22;70689;52.494;13.420;2023-09-30T11:16:59;21.80;38.20
81218;DHT22;70689;52.494;13.420;2023-09-30T11:19:34;21.70;38.50
81218;DHT22;70689;52.494;13.420;2023-09-30T11:22:00;21.60;38.40
81218;DHT22;70689;52.494;13.420;2023-09-30T11:24:26;21.70;38.70
81218;DHT22;70689;52.494;13.420;2023-09-30T11:26:55;21.80;38.30
81218;DHT22;70689;52.494;13.420;2023-09-30T11:29:21;21.70;38.30
81218;DHT22;70689;52.494;13.420;2023-09-30T11:31:48;21.40;39.40
81218;DHT22;70689;52.494;13.420;2023-09-30T11:34:15;21.40;40.00
81218;DHT22;70689;52.494;13.420;2023-09-30T11:36:50;21.40;40.20
81218;DHT22;70689;52.494;13.420;2023-09-30T11:39:27;21.70;39.70
81218;DHT22;70689;52.494;13.420;2023-09-30T11:41:53;21.80;39.70
81218;DHT22;70689;52.494;13.420;2023-09-30T11:44:20;22.00;38.90
81218;DHT22;70689;52.494;13.420;2023-09-30T11:47:02;22.00;38.10
81218;DHT22;70689;52.494;13.420;2023-09-30T11:49:34;21.80;37.50
81218;DHT22;70689;52.494;13.420;2023-09-30T11:52:08;21.80;38.20
81218;DHT22;70689;52.494;13.420;2023-09-30T11:57:13;22.10;37.00
81218;DHT22;70689;52.494;13.420;2023-09-30T11:59:43;22.20;37.70
81218;DHT22;70689;52.494;13.420;2023-09-30T12:02:09;22.10;37.10
81218;DHT22;70689;52.494;13.420;2023-09-30T12:04:36;22.10;36.20
81218;DHT22;70689;52.494;13.420;2023-09-30T12:07:02;21.80;36.70
81218;DHT22;70689;52.494;13.420;2023-09-30T12:09:27;21.80;36.70
81218;DHT22;70689;52.494;13.420;2023-09-30T12:11:54;21.90;36.60
81218;DHT22;70689;52.494;13.420;2023-09-30T12:14:21;21.90;35.00
81218;DHT22;70689;52.494;13.420;2023-09-30T12:16:47;21.90;36.20
81218;DHT22;70689;52.494;13.420;2023-09-30T12:19:19;22.00;37.20
81218;DHT22;70689;52.494;13.420;2023-09-30T12:21:46;22.00;37.70
81218;DHT22;70689;52.494;13.420;2023-09-30T12:24:14;21.90;38.50
81218;DHT22;70689;52.494;13.420;2023-09-30T12:26:49;22.00;38.60
81218;DHT22;70689;52.494;13.420;2023-09-30T12:29:19;22.00;37.70
81218;DHT22;70689;52.494;13.420;2023-09-30T12:31:45;21.90;38.70
81218;DHT22;70689;52.494;13.420;2023-09-30T12:34:13;21.90;37.50
81218;DHT22;70689;52.494;13.420;2023-09-30T12:36:42;21.80;37.60
81218;DHT22;70689;52.494;13.420;2023-09-30T12:39:09;21.80;36.70
81218;DHT22;70689;52.494;13.420;2023-09-30T12:41:42;21.80;36.50
81218;DHT22;70689;52.494;13.420;2023-09-30T12:44:08;21.80;35.70
81218;DHT22;70689;52.494;13.420;2023-09-30T12:46:34;21.90;35.60
81218;DHT22;70689;52.494;13.420;2023-09-30T12:49:02;21.90;36.10
81218;DHT22;70689;52.494;13.420;2023-09-30T12:51:28;21.90;36.00
81218;DHT22;70689;52.494;13.420;2023-09-30T12:53:54;21.80;37.20
81218;DHT22;70689;52.494;13.420;2023-09-30T12:56:20;21.70;35.90
81218;DHT22;70689;52.494;13.420;2023-09-30T12:58:47;21.80;35.30
81218;DHT22;70689;52.494;13.420;2023-09-30T13:01:12;21.90;35.10
81218;DHT22;70689;52.494;13.420;2023-09-30T13:03:38;22.00;34.10
81218;DHT22;70689;52.494;13.420;2023-09-30T13:06:04;22.00;34.30
81218;DHT22;70689;52.494;13.420;2023-09-30T13:08:30;22.00;34.90
81218;DHT22;70689;52.494;13.420;2023-09-30T13:11:03;21.90;34.30
81218;DHT22;70689;52.494;13.420;2023-09-30T13:13:29;22.10;34.60
81218;DHT22;70689;52.494;13.420;2023-09-30T13:16:05;22.00;35.00
81218;DHT22;70689;52.494;13.420;2023-09-30T13:18:31;22.10;34.90
81218;DHT22;70689;52.494;13.420;2023-09-30T13:20:58;22.10;34.00
81218;DHT22;70689;52.494;13.420;2023-09-30T13:23:23;22.00;34.50
81218;DHT22;70689;52.494;13.420;2023-09-30T13:25:49;21.90;34.20
81218;DHT22;70689;52.494;13.420;2023-09-30T13:28:15;21.90;33.70
81218;DHT22;70689;52.494;13.420;2023-09-30T13:30:40;21.80;34.00
81218;DHT22;70689;52.494;13.420;2023-09-30T13:33:06;21.70;33.90
81218;DHT22;70689;52.494;13.420;2023-09-30T13:35:32;21.60;33.80
81218;DHT22;70689;52.494;13.420;2023-09-30T13:37:58;21.60;34.30
81218;DHT22;70689;52.494;13.420;2023-09-30T13:40:23;21.60;34.60
81218;DHT22;70689;52.494;13.420;2023-09-30T13:42:49;21.60;34.90
81218;DHT22;70689;52.494;13.420;2023-09-30T13:45:15;21.60;35.10
81218;DHT22;70689;52.494;13.420;2023-09-30T13:47:44;21.70;34.90
81218;DHT22;70689;52.494;13.420;2023-09-30T13:50:10;21.90;35.00
81218;DHT22;70689;52.494;13.420;2023-09-30T13:52:36;21.90;34.50
81218;DHT22;70689;52.494;13.420;2023-09-30T13:55:02;22.10;34.10
81218;DHT22;70689;52.494;13.420;2023-09-30T13:57:29;22.30;33.50
81218;DHT22;70689;52.494;13.420;2023-09-30T13:59:54;22.30;32.90
81218;DHT22;70689;52.494;13.420;2023-09-30T14:02:20;22.20;32.70
81218;DHT22;70689;52.494;13.420;2023-09-30T14:04:46;22.10;33.00
81218;DHT22;70689;52.494;13.420;2023-09-30T14:07:12;22.00;33.00
81218;DHT22;70689;52.494;13.420;2023-09-30T14:09:37;21.90;33.50
81218;DHT22;70689;52.494;13.420;2023-09-30T14:12:03;21.90;33.50
81218;DHT22;70689;52.494;13.420;2023-09-30T14:14:33;21.90;33.90
81218;DHT22;70689;52.494;13.420;2023-09-30T14:16:59;21.90;34.10
81218;DHT22;70689;52.494;13.420;2023-09-30T14:19:25;21.90;33.70
81218;DHT22;70689;52.494;13.420;2023-09-30T14:21:50;22.00;33.60
81218;DHT22;70689;52.494;13.420;2023-09-30T14:24:16;21.90;33.90
81218;DHT22;70689;52.494;13.420;2023-09-30T14:26:42;21.90;33.30
81218;DHT22;70689;52.494;13.420;2023-09-30T14:29:09;21.70;32.70
81218;DHT22;70689;52.494;13.420;2023-09-30T14:31:37;21.70;33.30
81218;DHT22;70689;52.494;13.420;2023-09-30T14:34:03;21.60;33.30
81218;DHT22;70689;52.494;13.420;2023-09-30T14:36:30;21.80;33.10
81218;DHT22;70689;52.494;13.420;2023-09-30T14:38:58;21.70;33.70
81218;DHT22;70689;52.494;13.420;2023-09-30T14:41:24;21.70;33.70
81218;DHT22;70689;52.494;13.420;2023-09-30T14:43:50;21.90;33.40
81218;DHT22;70689;52.494;13.420;2023-09-30T14:46:15;21.80;33.90
81218;DHT22;70689;52.494;13.420;2023-09-30T14:48:41;21.70;33.60
81218;DHT22;70689;52.494;13.420;2023-09-30T14:51:09;21.70;34.30
81218;DHT22;70689;52.494;13.420;2023-09-30T14:53:34;21.60;34.80
81218;DHT22;70689;52.494;13.420;2023-09-30T14:56:00;21.50;33.30
81218;DHT22;70689;52.494;13.420;2023-09-30T14:58:26;21.50;32.90
81218;DHT22;70689;52.494;13.420;2023-09-30T15:00:51;21.40;33.00
81218;DHT22;70689;52.494;13.420;2023-09-30T15:03:18;21.40;32.70
81218;DHT22;70689;52.494;13.420;2023-09-30T15:05:44;21.40;32.90
81218;DHT22;70689;52.494;13.420;2023-09-30T15:08:10;21.20;33.60
81218;DHT22;70689;52.494;13.420;2023-09-30T15:10:36;21.20;33.90
81218;DHT22;70689;52.494;13.420;2023-09-30T15:13:01;21.30;33.70
81218;DHT22;70689;52.494;13.420;2023-09-30T15:15:27;21.20;34.00
81218;DHT22;70689;52.494;13.420;2023-09-30T15:17:53;21.20;34.50
81218;DHT22;70689;52.494;13.420;2023-09-30T15:20:20;21.20;34.60
81218;DHT22;70689;52.494;13.420;2023-09-30T15:22:46;21.10;34.80
81218;DHT22;70689;52.494;13.420;2023-09-30T15:25:12;21.10;34.90
81218;DHT22;70689;52.494;13.420;2023-09-30T15:27:37;20.90;35.20
81218;DHT22;70689;52.494;13.420;2023-09-30T15:30:03;20.90;35.00
81218;DHT22;70689;52.494;13.420;2023-09-30T15:32:29;20.90;35.60
81218;DHT22;70689;52.494;13.420;2023-09-30T15:34:56;20.80;35.80
81218;DHT22;70689;52.494;13.420;2023-09-30T15:37:21;20.80;35.60
81218;DHT22;70689;52.494;13.420;2023-09-30T15:39:47;20.90;35.70
81218;DHT22;70689;52.494;13.420;2023-09-30T15:42:13;20.90;35.90